createdAt,value
2022-09-20T00:01:06.349Z,11.87
2022-09-20T00:03:34.102Z,11.84
2022-09-20T00:06:02.808Z,11.79
2022-09-20T00:08:30.413Z,11.68
2022-09-20T00:11:03.090Z,11.59
2022-09-20T00:13:31.835Z,11.52
2022-09-20T00:15:59.388Z,11.51
2022-09-20T00:18:27.673Z,11.55
2022-09-20T00:20:55.133Z,11.63
2022-09-20T00:23:22.707Z,11.51
2022-09-20T00:25:57.568Z,11.50
2022-09-20T00:28:27.128Z,11.37
2022-09-20T00:30:55.589Z,11.35
2022-09-20T00:33:24.081Z,11.17
2022-09-20T00:35:50.701Z,10.98
2022-09-20T00:38:18.304Z,10.77
2022-09-20T00:40:45.936Z,10.97
2022-09-20T00:43:15.141Z,11.10
2022-09-20T00:45:44.454Z,10.93
2022-09-20T00:48:14.477Z,10.83
2022-09-20T00:50:44.253Z,11.02
2022-09-20T00:53:14.324Z,11.03
2022-09-20T00:55:45.436Z,11.05
2022-09-20T00:58:13.462Z,11.14
2022-09-20T01:00:41.141Z,11.17
2022-09-20T01:03:11.107Z,11.05
2022-09-20T01:05:39.235Z,11.06
2022-09-20T01:08:07.107Z,11.08
2022-09-20T01:10:34.543Z,10.97
2022-09-20T01:13:01.990Z,11.01
2022-09-20T01:15:31.079Z,10.97
2022-09-20T01:17:59.908Z,11.02
2022-09-20T01:20:30.963Z,10.94
2022-09-20T01:23:15.066Z,10.84
2022-09-20T01:26:18.488Z,10.99
2022-09-20T01:28:48.507Z,11.03
2022-09-20T01:31:18.907Z,10.91
2022-09-20T01:33:49.420Z,11.02
2022-09-20T01:36:20.124Z,10.97
2022-09-20T01:38:53.813Z,10.93
2022-09-20T01:41:25.494Z,10.80
2022-09-20T01:43:56.188Z,10.80
2022-09-20T01:46:30.983Z,10.73
2022-09-20T01:49:09.461Z,10.84
2022-09-20T01:52:17.831Z,10.79
2022-09-20T01:55:01.831Z,10.79
2022-09-20T01:58:07.032Z,10.73
2022-09-20T02:00:40.011Z,10.73
2022-09-20T02:03:24.690Z,10.64
2022-09-20T02:06:12.711Z,10.72
2022-09-20T02:09:08.062Z,10.67
2022-09-20T02:11:54.921Z,10.55
2022-09-20T02:14:32.208Z,10.64
2022-09-20T02:17:08.191Z,10.77
2022-09-20T02:20:00.554Z,10.63
2022-09-20T02:22:36.748Z,10.54
2022-09-20T02:25:13.517Z,10.30
2022-09-20T02:27:48.991Z,10.20
2022-09-20T02:30:33.325Z,10.11
2022-09-20T02:33:21.995Z,9.87
2022-09-20T02:36:08.652Z,9.83
2022-09-20T02:38:43.745Z,9.84
2022-09-20T02:41:27.213Z,9.71
2022-09-20T02:43:59.196Z,9.88
2022-09-20T02:46:31.371Z,10.00
2022-09-20T02:49:04.142Z,10.18
2022-09-20T02:51:37.419Z,10.14
2022-09-20T02:54:13.915Z,10.20
2022-09-20T02:56:46.912Z,10.14
2022-09-20T02:59:23.788Z,10.34
2022-09-20T03:02:00.882Z,10.33
2022-09-20T03:04:38.971Z,10.36
2022-09-20T03:07:11.485Z,10.26
2022-09-20T03:09:44.336Z,10.18
2022-09-20T03:12:19.156Z,10.14
2022-09-20T03:14:51.466Z,10.14
2022-09-20T03:17:23.815Z,10.15
2022-09-20T03:20:06.232Z,10.12
2022-09-20T03:22:42.720Z,10.21
2022-09-20T03:25:26.107Z,10.05
2022-09-20T03:28:02.827Z,10.10
2022-09-20T03:30:40.233Z,10.07
2022-09-20T03:33:13.136Z,10.11
2022-09-20T03:35:56.297Z,10.14
2022-09-20T03:38:34.448Z,10.21
2022-09-20T03:41:11.528Z,10.19
2022-09-20T03:43:53.695Z,10.19
2022-09-20T03:46:23.395Z,10.08
2022-09-20T03:49:28.194Z,10.01
2022-09-20T03:52:02.138Z,10.06
2022-09-20T03:54:47.938Z,10.01
2022-09-20T03:57:36.228Z,10.01
2022-09-20T04:00:10.715Z,10.13
2022-09-20T04:02:52.138Z,9.96
2022-09-20T04:05:25.585Z,10.06
2022-09-20T04:08:04.308Z,9.93
2022-09-20T04:10:40.734Z,9.79
2022-09-20T04:13:18.709Z,9.73
2022-09-20T04:15:57.428Z,9.64
2022-09-20T04:18:31.753Z,9.68
2022-09-20T04:21:04.192Z,9.77
2022-09-20T04:23:40.878Z,9.76
2022-09-20T04:26:08.924Z,9.91
2022-09-20T04:28:41.694Z,9.94
2022-09-20T04:31:26.889Z,10.03
2022-09-20T04:33:57.309Z,9.97
2022-09-20T04:36:50.983Z,10.03
2022-09-20T04:39:29.479Z,9.96
2022-09-20T04:42:28.648Z,9.97
2022-09-20T04:45:13.969Z,10.02
2022-09-20T04:48:13.616Z,9.90
2022-09-20T04:51:04.583Z,9.82
2022-09-20T04:53:58.337Z,9.88
2022-09-20T04:56:41.699Z,9.97
2022-09-20T04:59:10.585Z,9.98
2022-09-20T05:02:30.234Z,10.04
2022-09-20T05:05:40.828Z,9.94
2022-09-20T05:08:48.505Z,10.04
2022-09-20T05:11:57.202Z,10.07
2022-09-20T05:14:48.079Z,10.08
2022-09-20T05:17:25.178Z,10.11
2022-09-20T05:20:13.436Z,10.00
2022-09-20T05:23:04.047Z,9.95
2022-09-20T05:25:45.025Z,9.97
2022-09-20T05:28:21.753Z,9.97
2022-09-20T05:30:51.081Z,10.11
2022-09-20T05:33:22.563Z,10.20
2022-09-20T05:36:02.367Z,10.21
2022-09-20T05:38:35.530Z,10.28
2022-09-20T05:41:13.809Z,10.22
2022-09-20T05:43:51.956Z,10.14
2022-09-20T05:46:27.660Z,10.21
2022-09-20T05:48:58.242Z,10.22
2022-09-20T05:51:48.358Z,10.27
2022-09-20T05:54:35.464Z,10.26
2022-09-20T05:57:16.120Z,10.25
2022-09-20T05:59:57.866Z,10.29
2022-09-20T06:02:36.130Z,10.38
2022-09-20T06:05:11.484Z,10.35
2022-09-20T06:07:51.939Z,10.36
2022-09-20T06:10:43.864Z,10.29
2022-09-20T06:13:25.138Z,10.26
2022-09-20T06:15:59.044Z,10.30
2022-09-20T06:18:28.770Z,10.32
2022-09-20T06:21:03.325Z,10.33
2022-09-20T06:23:31.968Z,10.36
2022-09-20T06:26:03.729Z,10.30
2022-09-20T06:28:34.149Z,10.37
2022-09-20T06:31:07.252Z,10.31
2022-09-20T06:33:34.747Z,10.34
2022-09-20T06:36:21.751Z,10.32
2022-09-20T06:39:12.637Z,10.31
2022-09-20T06:41:40.741Z,10.36
2022-09-20T06:44:08.282Z,10.44
2022-09-20T06:46:38.442Z,10.61
2022-09-20T06:49:08.192Z,10.75
2022-09-20T06:51:37.160Z,10.98
2022-09-20T06:54:06.347Z,11.07
2022-09-20T06:56:36.613Z,11.14
2022-09-20T06:59:04.366Z,11.23
2022-09-20T07:01:32.268Z,11.26
2022-09-20T07:04:01.249Z,11.29
2022-09-20T07:06:29.189Z,11.36
2022-09-20T07:08:56.647Z,11.38
2022-09-20T07:11:24.443Z,11.39
2022-09-20T07:13:53.760Z,11.45
2022-09-20T07:16:21.412Z,11.50
2022-09-20T07:18:49.684Z,11.58
2022-09-20T07:21:19.956Z,11.65
2022-09-20T07:23:48.527Z,11.66
2022-09-20T07:26:19.373Z,11.74
2022-09-20T07:28:47.206Z,11.79
2022-09-20T07:31:14.684Z,11.81
2022-09-20T07:33:42.168Z,11.86
2022-09-20T07:36:12.234Z,11.91
2022-09-20T07:38:41.636Z,11.97
2022-09-20T07:41:10.464Z,11.94
2022-09-20T07:43:38.095Z,12.01
2022-09-20T07:46:05.978Z,12.08
2022-09-20T07:48:35.043Z,12.25
2022-09-20T07:51:08.417Z,12.29
2022-09-20T07:53:36.532Z,12.31
2022-09-20T07:56:07.226Z,12.37
2022-09-20T07:58:36.114Z,12.46
2022-09-20T08:01:05.348Z,12.41
2022-09-20T08:03:33.509Z,12.39
2022-09-20T08:06:01.929Z,12.52
2022-09-20T08:08:32.426Z,12.49
2022-09-20T08:11:05.290Z,12.53
2022-09-20T08:16:24.585Z,12.77
2022-09-20T08:18:54.023Z,12.84
2022-09-20T08:21:22.750Z,12.87
2022-09-20T08:23:50.398Z,12.85
2022-09-20T08:26:20.111Z,13.01
2022-09-20T08:28:52.621Z,12.90
2022-09-20T08:31:21.945Z,13.02
2022-09-20T08:33:50.432Z,13.06
2022-09-20T08:36:19.694Z,13.13
2022-09-20T08:41:38.861Z,13.40
2022-09-20T08:44:13.023Z,13.37
2022-09-20T08:46:43.447Z,13.50
2022-09-20T08:49:16.205Z,13.52
2022-09-20T08:51:48.659Z,13.57
2022-09-20T08:54:16.246Z,13.61
2022-09-20T08:56:44.416Z,13.52
2022-09-20T08:59:16.305Z,13.59
2022-09-20T09:01:43.784Z,13.64
2022-09-20T09:04:14.446Z,13.71
2022-09-20T09:06:42.514Z,13.73
2022-09-20T09:09:17.723Z,13.94
2022-09-20T09:11:46.068Z,14.06
2022-09-20T09:14:41.330Z,14.09
2022-09-20T09:17:10.312Z,14.09
2022-09-20T09:19:44.880Z,14.13
2022-09-20T09:22:13.141Z,14.14
2022-09-20T09:24:40.737Z,14.12
2022-09-20T09:27:14.761Z,14.10
2022-09-20T09:29:51.784Z,14.04
2022-09-20T09:32:23.430Z,14.11
2022-09-20T09:34:51.010Z,14.15
2022-09-20T09:37:28.868Z,14.20
2022-09-20T09:40:16.421Z,14.47
2022-09-20T09:42:52.227Z,14.43
2022-09-20T09:45:31.311Z,14.43
2022-09-20T09:48:01.415Z,14.49
2022-09-20T09:50:31.651Z,14.41
2022-09-20T09:53:02.818Z,14.53
2022-09-20T09:55:43.334Z,14.58
2022-09-20T09:58:21.157Z,14.81
2022-09-20T10:00:50.507Z,14.87
2022-09-20T10:03:29.960Z,14.98
2022-09-20T10:06:05.422Z,15.00
2022-09-20T10:08:43.186Z,14.92
2022-09-20T10:11:23.288Z,14.88
2022-09-20T10:13:56.391Z,15.02
2022-09-20T10:16:31.338Z,15.02
2022-09-20T10:19:03.441Z,14.99
2022-09-20T10:21:44.702Z,15.17
2022-09-20T10:24:19.962Z,15.16
2022-09-20T10:27:03.372Z,15.10
2022-09-20T10:29:41.812Z,15.13
2022-09-20T10:32:21.033Z,15.13
2022-09-20T10:35:02.741Z,15.15
2022-09-20T10:37:34.932Z,15.16
2022-09-20T10:40:10.590Z,15.37
2022-09-20T10:42:59.943Z,15.44
2022-09-20T10:45:59.570Z,15.42
2022-09-20T10:48:26.074Z,15.35
2022-09-20T10:50:59.636Z,15.38
2022-09-20T10:53:31.377Z,15.48
2022-09-20T10:56:07.495Z,15.49
2022-09-20T10:59:17.561Z,15.55
2022-09-20T11:01:54.938Z,15.69
2022-09-20T11:04:46.959Z,15.83
2022-09-20T11:07:19.637Z,16.06
2022-09-20T11:09:50.813Z,16.11
2022-09-20T11:12:24.700Z,16.28
2022-09-20T11:14:55.457Z,16.47
2022-09-20T11:17:26.237Z,16.57
2022-09-20T11:20:04.714Z,16.27
2022-09-20T11:22:40.068Z,16.23
2022-09-20T11:25:19.432Z,16.20
2022-09-20T11:27:51.237Z,16.11
2022-09-20T11:30:20.718Z,16.21
2022-09-20T11:32:50.699Z,16.35
2022-09-20T11:35:30.161Z,16.19
2022-09-20T11:38:06.290Z,16.10
2022-09-20T11:40:36.756Z,16.03
2022-09-20T11:43:07.220Z,15.84
2022-09-20T11:45:35.312Z,15.80
2022-09-20T11:48:05.137Z,15.65
2022-09-20T11:50:50.048Z,15.62
2022-09-20T11:53:28.003Z,15.43
2022-09-20T11:55:59.921Z,15.41
2022-09-20T11:58:27.714Z,15.49
2022-09-20T12:00:57.281Z,15.38
2022-09-20T12:03:32.130Z,15.46
2022-09-20T12:06:02.026Z,15.65
2022-09-20T12:08:32.182Z,15.71
2022-09-20T12:11:04.175Z,15.75
2022-09-20T12:13:32.815Z,15.93
2022-09-20T12:16:03.025Z,16.26
2022-09-20T12:18:37.242Z,16.45
2022-09-20T12:21:15.286Z,16.56
2022-09-20T12:24:04.937Z,16.41
2022-09-20T12:26:43.469Z,16.37
2022-09-20T12:29:53.048Z,16.27
2022-09-20T12:32:45.826Z,15.59
2022-09-20T12:35:56.399Z,15.16
2022-09-20T12:38:49.728Z,15.02
2022-09-20T12:41:27.841Z,14.98
2022-09-20T12:44:03.574Z,14.37
2022-09-20T12:46:34.998Z,14.42
2022-09-20T12:49:47.126Z,14.61
2022-09-20T12:52:53.475Z,14.17
2022-09-20T12:55:46.740Z,13.96
2022-09-20T12:58:35.717Z,13.98
2022-09-20T13:01:32.418Z,13.73
2022-09-20T13:04:37.449Z,13.80
2022-09-20T13:07:43.793Z,13.65
2022-09-20T13:10:29.059Z,13.21
2022-09-20T13:13:02.226Z,13.20
2022-09-20T13:15:31.921Z,13.20
2022-09-20T13:18:01.596Z,13.12
2022-09-20T13:20:31.333Z,13.09
2022-09-20T13:23:00.539Z,13.29
2022-09-20T13:25:28.371Z,13.56
2022-09-20T13:28:03.421Z,13.89
2022-09-20T13:30:32.599Z,14.12
2022-09-20T13:33:15.738Z,14.29
2022-09-20T13:35:44.457Z,14.10
2022-09-20T13:38:11.905Z,14.01
2022-09-20T13:40:42.248Z,14.00
2022-09-20T13:43:24.448Z,14.17
2022-09-20T13:45:54.535Z,14.25
2022-09-20T13:48:25.606Z,13.96
2022-09-20T13:50:53.910Z,13.65
2022-09-20T13:53:40.579Z,13.63
2022-09-20T13:56:11.092Z,13.77
2022-09-20T13:58:39.865Z,13.87
2022-09-20T14:01:09.589Z,13.92
2022-09-20T14:03:37.421Z,14.02
2022-09-20T14:06:08.565Z,14.19
2022-09-20T14:08:38.909Z,14.01
2022-09-20T14:11:07.922Z,13.82
2022-09-20T14:13:41.793Z,13.92
2022-09-20T14:16:09.875Z,14.10
2022-09-20T14:18:38.220Z,14.37
2022-09-20T14:21:07.668Z,14.63
2022-09-20T14:23:50.787Z,14.88
2022-09-20T14:26:27.660Z,15.01
2022-09-20T14:28:56.641Z,14.96
2022-09-20T14:31:26.522Z,15.03
2022-09-20T14:33:55.681Z,15.10
2022-09-20T14:36:24.936Z,15.02
2022-09-20T14:40:08.425Z,14.88
2022-09-20T14:42:37.314Z,14.93
2022-09-20T14:45:07.385Z,14.78
2022-09-20T14:47:40.501Z,14.69
2022-09-20T14:50:24.781Z,14.59
2022-09-20T14:53:26.140Z,14.49
2022-09-20T14:55:59.967Z,14.51
2022-09-20T14:58:27.750Z,14.48
2022-09-20T15:00:59.180Z,14.26
2022-09-20T15:03:28.644Z,14.17
2022-09-20T15:05:56.470Z,14.14
2022-09-20T15:08:24.539Z,14.08
2022-09-20T15:10:52.104Z,14.00
2022-09-20T15:13:19.783Z,13.98
2022-09-20T15:15:50.753Z,13.96
2022-09-20T15:18:22.614Z,13.91
2022-09-20T15:20:50.588Z,13.86
2022-09-20T15:23:18.453Z,13.86
2022-09-20T15:25:46.243Z,13.81
2022-09-20T15:28:17.254Z,13.79
2022-09-20T15:30:44.996Z,13.74
2022-09-20T15:33:13.315Z,13.60
2022-09-20T15:35:43.369Z,13.55
2022-09-20T15:38:11.991Z,13.73
2022-09-20T15:40:40.700Z,13.83
2022-09-20T15:43:09.518Z,13.82
2022-09-20T15:45:37.737Z,13.92
2022-09-20T15:48:05.609Z,13.81
2022-09-20T15:50:33.275Z,13.86
2022-09-20T15:53:02.186Z,13.95
2022-09-20T15:55:29.815Z,13.99
2022-09-20T15:57:57.517Z,13.90
2022-09-20T16:00:25.341Z,13.68
2022-09-20T16:02:52.857Z,13.75
2022-09-20T16:05:20.510Z,13.82
2022-09-20T16:07:48.480Z,13.72
2022-09-20T16:10:17.462Z,13.66
2022-09-20T16:12:45.174Z,13.58
2022-09-20T16:15:12.725Z,13.53
2022-09-20T16:17:57.982Z,13.48
2022-09-20T16:20:25.586Z,13.41
2022-09-20T16:22:53.229Z,13.48
2022-09-20T16:25:22.134Z,13.51
2022-09-20T16:27:49.736Z,13.51
2022-09-20T16:30:17.605Z,13.46
2022-09-20T16:32:46.251Z,13.31
2022-09-20T16:35:13.920Z,13.29
2022-09-20T16:37:41.470Z,13.25
2022-09-20T16:40:11.191Z,13.36
2022-09-20T16:42:40.211Z,13.40
2022-09-20T16:45:08.512Z,13.30
2022-09-20T16:47:41.007Z,13.25
2022-09-20T16:50:11.666Z,13.35
2022-09-20T16:52:39.792Z,13.18
2022-09-20T16:55:10.960Z,13.21
2022-09-20T16:57:39.833Z,13.09
2022-09-20T17:00:08.883Z,13.16
2022-09-20T17:02:36.877Z,13.08
2022-09-20T17:05:05.293Z,13.14
2022-09-20T17:07:33.607Z,13.15
2022-09-20T17:13:03.329Z,13.04
2022-09-20T17:15:31.017Z,12.98
2022-09-20T17:17:58.656Z,12.96
2022-09-20T17:20:29.189Z,13.29
2022-09-20T17:22:56.908Z,13.26
2022-09-20T17:25:30.202Z,13.08
2022-09-20T17:27:58.483Z,13.17
2022-09-20T17:30:27.437Z,12.95
2022-09-20T17:32:55.857Z,12.85
2022-09-20T17:35:23.374Z,12.81
2022-09-20T17:37:52.223Z,12.69
2022-09-20T17:40:19.827Z,12.67
2022-09-20T17:42:47.425Z,12.59
2022-09-20T17:45:16.681Z,12.52
2022-09-20T17:47:45.864Z,12.60
2022-09-20T17:50:15.183Z,12.44
2022-09-20T17:52:42.948Z,12.55
2022-09-20T17:55:11.202Z,12.45
2022-09-20T17:57:39.004Z,12.38
2022-09-20T18:00:07.959Z,12.31
2022-09-20T18:02:35.587Z,12.34
2022-09-20T18:05:04.569Z,12.42
2022-09-20T18:07:34.332Z,12.51
2022-09-20T18:10:02.231Z,12.49
2022-09-20T18:12:29.927Z,12.49
2022-09-20T18:14:57.536Z,12.41
2022-09-20T18:17:27.967Z,12.59
2022-09-20T18:19:55.510Z,12.74
2022-09-20T18:22:24.723Z,12.77
2022-09-20T18:24:52.555Z,12.66
2022-09-20T18:27:20.406Z,12.65
2022-09-20T18:29:48.136Z,12.76
2022-09-20T18:32:16.515Z,12.69
2022-09-20T18:34:44.177Z,12.71
2022-09-20T18:37:14.851Z,12.59
2022-09-20T18:39:44.215Z,12.54
2022-09-20T18:42:11.903Z,12.42
2022-09-20T18:44:40.136Z,12.42
2022-09-20T18:47:07.896Z,12.44
2022-09-20T18:49:35.598Z,12.36
2022-09-20T18:52:03.824Z,12.30
2022-09-20T18:54:33.215Z,12.33
2022-09-20T18:57:06.744Z,12.32
2022-09-20T18:59:34.736Z,12.23
2022-09-20T19:02:18.384Z,12.17
2022-09-20T19:05:08.509Z,12.10
2022-09-20T19:07:43.724Z,12.31
2022-09-20T19:10:19.258Z,12.28
2022-09-20T19:13:02.198Z,12.28
2022-09-20T19:15:54.137Z,12.23
2022-09-20T19:18:36.259Z,12.21
2022-09-20T19:21:14.612Z,12.33
2022-09-20T19:24:03.333Z,12.34
2022-09-20T19:26:32.437Z,12.29
2022-09-20T19:29:02.101Z,12.24
2022-09-20T19:31:31.326Z,12.20
2022-09-20T19:34:01.053Z,12.20
2022-09-20T19:36:38.588Z,12.21
2022-09-20T19:39:11.696Z,12.27
2022-09-20T19:41:48.358Z,12.25
2022-09-20T19:44:26.691Z,12.07
2022-09-20T19:47:03.896Z,12.02
2022-09-20T19:49:41.648Z,12.02
2022-09-20T19:52:11.504Z,11.96
2022-09-20T19:54:42.208Z,11.92
2022-09-20T19:57:19.411Z,11.93
2022-09-20T19:59:49.297Z,11.91
2022-09-20T20:02:17.666Z,11.81
2022-09-20T20:04:46.291Z,11.73
2022-09-20T20:07:21.548Z,11.77
2022-09-20T20:09:53.231Z,11.65
2022-09-20T20:12:26.020Z,11.68
2022-09-20T20:15:04.785Z,11.65
2022-09-20T20:17:46.148Z,11.60
2022-09-20T20:20:23.389Z,11.60
2022-09-20T20:23:05.844Z,11.58
2022-09-20T20:25:37.548Z,11.52
2022-09-20T20:28:05.123Z,11.53
2022-09-20T20:30:44.498Z,11.66
2022-09-20T20:33:14.895Z,11.77
2022-09-20T20:35:42.505Z,11.98
2022-09-20T20:38:11.496Z,11.80
2022-09-20T20:40:40.256Z,11.64
2022-09-20T20:43:09.810Z,11.45
2022-09-20T20:45:40.037Z,11.58
2022-09-20T20:48:09.342Z,11.51
2022-09-20T20:50:37.068Z,11.44
2022-09-20T20:53:06.684Z,11.42
2022-09-20T20:55:34.254Z,11.32
2022-09-20T20:58:01.888Z,11.26
2022-09-20T21:00:57.057Z,11.15
2022-09-20T21:03:43.276Z,11.09
2022-09-20T21:07:28.955Z,11.15
2022-09-20T21:10:18.097Z,11.00
2022-09-20T21:13:12.402Z,11.01
2022-09-20T21:15:42.207Z,11.06
2022-09-20T21:18:13.384Z,10.99
2022-09-20T21:21:02.619Z,11.03
2022-09-20T21:23:34.864Z,10.96
2022-09-20T21:26:09.099Z,10.93
2022-09-20T21:28:37.866Z,10.85
2022-09-20T21:31:10.717Z,10.79
2022-09-20T21:33:40.669Z,10.86
2022-09-20T21:36:09.383Z,11.00
2022-09-20T21:38:37.536Z,10.99
2022-09-20T21:41:11.260Z,11.03
2022-09-20T21:43:41.767Z,10.96
2022-09-20T21:46:18.938Z,10.90
2022-09-20T21:48:47.477Z,10.78
2022-09-20T21:51:16.570Z,10.61
2022-09-20T21:53:44.013Z,10.62
2022-09-20T21:56:13.416Z,10.65
2022-09-20T21:58:41.557Z,10.62
2022-09-20T22:01:11.242Z,10.63
2022-09-20T22:03:41.558Z,10.43
2022-09-20T22:06:11.514Z,10.24
2022-09-20T22:08:40.694Z,10.06
2022-09-20T22:11:12.219Z,9.95
2022-09-20T22:13:42.837Z,10.12
2022-09-20T22:16:12.258Z,10.09
2022-09-20T22:18:42.859Z,9.93
2022-09-20T22:21:11.910Z,9.86
2022-09-20T22:23:49.017Z,9.95
2022-09-20T22:26:21.594Z,9.93
2022-09-20T22:28:56.309Z,9.95
2022-09-20T22:31:27.195Z,9.91
2022-09-20T22:33:58.037Z,9.81
2022-09-20T22:36:27.159Z,9.78
2022-09-20T22:38:55.005Z,9.84
2022-09-20T22:41:26.320Z,9.82
2022-09-20T22:43:53.978Z,9.82
2022-09-20T22:46:23.559Z,9.84
2022-09-20T22:48:51.396Z,9.86
2022-09-20T22:51:21.853Z,9.83
2022-09-20T22:53:49.705Z,9.80
2022-09-20T22:56:21.102Z,9.67
2022-09-20T22:58:50.069Z,9.52
2022-09-20T23:01:23.725Z,9.52
2022-09-20T23:03:55.193Z,9.59
2022-09-20T23:06:27.849Z,9.67
2022-09-20T23:08:57.078Z,9.48
2022-09-20T23:11:25.283Z,9.44
2022-09-20T23:13:54.553Z,9.29
2022-09-20T23:16:24.314Z,9.29
2022-09-20T23:18:53.086Z,9.38
2022-09-20T23:21:21.304Z,9.60
2022-09-20T23:23:53.382Z,9.48
2022-09-20T23:26:21.128Z,9.35
2022-09-20T23:28:55.448Z,9.36
2022-09-20T23:31:23.288Z,9.49
2022-09-20T23:33:52.371Z,9.36
2022-09-20T23:36:20.759Z,9.32
2022-09-20T23:38:50.239Z,9.21
2022-09-20T23:41:20.587Z,9.20
2022-09-20T23:43:48.426Z,9.25
2022-09-20T23:46:17.316Z,9.28
2022-09-20T23:48:45.041Z,9.29
2022-09-20T23:51:13.939Z,9.20
2022-09-20T23:53:41.695Z,9.14
2022-09-20T23:56:11.461Z,9.09
2022-09-20T23:58:39.886Z,9.11
